createdAt,value
2022-08-26T00:01:56.986Z,11.25
2022-08-26T00:04:25.464Z,11.23
2022-08-26T00:06:54.967Z,11.82
2022-08-26T00:09:25.371Z,10.85
2022-08-26T00:11:54.381Z,10.27
2022-08-26T00:14:27.020Z,11.68
2022-08-26T00:16:56.824Z,11.30
2022-08-26T00:19:26.691Z,11.05
2022-08-26T00:21:54.192Z,12.10
2022-08-26T00:24:23.562Z,11.57
2022-08-26T00:26:51.570Z,11.93
2022-08-26T00:29:19.480Z,12.00
2022-08-26T00:31:48.605Z,11.23
2022-08-26T00:34:19.593Z,11.32
2022-08-26T00:36:47.860Z,10.38
2022-08-26T00:39:20.980Z,10.60
2022-08-26T00:41:48.752Z,11.45
2022-08-26T00:44:16.534Z,11.88
2022-08-26T00:46:47.230Z,10.65
2022-08-26T00:49:25.959Z,11.63
2022-08-26T00:51:55.895Z,11.50
2022-08-26T00:54:26.973Z,11.32
2022-08-26T00:57:00.019Z,10.65
2022-08-26T00:59:32.841Z,11.68
2022-08-26T01:02:02.825Z,10.85
2022-08-26T01:04:33.718Z,11.00
2022-08-26T01:07:02.104Z,11.00
2022-08-26T01:09:33.299Z,10.32
2022-08-26T01:12:02.778Z,10.77
2022-08-26T01:14:36.751Z,11.85
2022-08-26T01:17:07.184Z,9.82
2022-08-26T01:19:47.587Z,11.10
2022-08-26T01:22:22.989Z,11.20
2022-08-26T01:24:57.438Z,10.40
2022-08-26T01:27:27.309Z,11.23
2022-08-26T01:30:00.491Z,11.80
2022-08-26T01:32:28.559Z,10.48
2022-08-26T01:34:55.618Z,11.55
2022-08-26T01:37:29.060Z,10.20
2022-08-26T01:39:57.307Z,11.27
2022-08-26T01:42:25.946Z,11.57
2022-08-26T01:44:59.890Z,10.88
2022-08-26T01:47:29.912Z,11.70
2022-08-26T01:50:02.980Z,11.27
2022-08-26T01:52:33.259Z,11.98
2022-08-26T01:55:01.186Z,11.70
2022-08-26T01:57:29.260Z,12.18
2022-08-26T02:00:01.276Z,11.32
2022-08-26T02:02:29.265Z,10.90
2022-08-26T02:05:01.828Z,11.82
2022-08-26T02:07:30.400Z,11.23
2022-08-26T02:10:00.789Z,11.57
2022-08-26T02:12:28.429Z,10.57
2022-08-26T02:15:00.791Z,10.88
2022-08-26T02:17:35.131Z,10.32
2022-08-26T02:20:04.019Z,10.95
2022-08-26T02:22:33.281Z,11.43
2022-08-26T02:25:22.020Z,10.90
2022-08-26T02:27:51.963Z,9.23
2022-08-26T02:30:27.400Z,9.55
2022-08-26T02:32:55.746Z,9.45
2022-08-26T02:35:24.395Z,9.55
2022-08-26T02:37:53.200Z,9.43
2022-08-26T02:40:24.776Z,9.15
2022-08-26T02:42:53.169Z,9.10
2022-08-26T02:45:23.797Z,10.02
2022-08-26T02:47:52.886Z,10.38
2022-08-26T02:50:20.855Z,9.87
2022-08-26T02:52:48.638Z,9.10
2022-08-26T02:55:16.558Z,10.15
2022-08-26T02:57:44.096Z,8.95
2022-08-26T03:00:14.790Z,9.63
2022-08-26T03:05:10.491Z,10.10
2022-08-26T03:07:37.775Z,9.63
2022-08-26T03:10:08.098Z,10.07
2022-08-26T03:12:36.129Z,9.52
2022-08-26T03:15:16.634Z,9.55
2022-08-26T03:17:47.257Z,9.15
2022-08-26T03:20:17.329Z,9.73
2022-08-26T03:22:45.321Z,9.90
2022-08-26T03:25:15.344Z,9.43
2022-08-26T03:27:43.011Z,9.70
2022-08-26T03:30:30.657Z,10.45
2022-08-26T03:32:57.974Z,9.77
2022-08-26T03:35:25.999Z,9.43
2022-08-26T03:37:53.887Z,9.13
2022-08-26T03:40:21.730Z,9.15
2022-08-26T03:42:50.188Z,9.05
2022-08-26T03:45:18.380Z,8.90
2022-08-26T03:47:47.596Z,10.25
2022-08-26T03:50:23.017Z,9.93
2022-08-26T03:52:53.513Z,9.50
2022-08-26T03:55:25.210Z,9.70
2022-08-26T03:57:54.640Z,9.75
2022-08-26T04:00:22.584Z,10.13
2022-08-26T04:02:53.333Z,9.95
2022-08-26T04:07:50.921Z,10.82
2022-08-26T04:10:28.552Z,10.43
2022-08-26T04:13:06.405Z,9.77
2022-08-26T04:15:33.919Z,9.93
2022-08-26T04:18:01.465Z,10.13
2022-08-26T04:20:28.472Z,9.57
2022-08-26T04:22:55.433Z,10.40
2022-08-26T04:25:24.328Z,9.88
2022-08-26T04:27:52.202Z,9.75
2022-08-26T04:30:20.119Z,9.40
2022-08-26T04:32:49.001Z,10.05
2022-08-26T04:35:16.433Z,9.23
2022-08-26T04:37:44.045Z,9.35
2022-08-26T04:40:11.497Z,9.77
2022-08-26T04:42:38.685Z,10.02
2022-08-26T04:45:10.345Z,9.05
2022-08-26T04:47:39.828Z,9.85
2022-08-26T04:50:08.385Z,10.35
2022-08-26T04:52:38.104Z,9.65
2022-08-26T04:55:08.317Z,10.30
2022-08-26T05:00:10.443Z,10.95
2022-08-26T05:02:38.391Z,9.82
2022-08-26T05:05:07.207Z,10.20
2022-08-26T05:07:35.525Z,10.10
2022-08-26T05:10:04.912Z,9.18
2022-08-26T05:12:35.769Z,9.40
2022-08-26T05:15:07.846Z,9.93
2022-08-26T05:17:35.645Z,9.43
2022-08-26T05:20:03.573Z,10.38
2022-08-26T05:22:30.823Z,10.05
2022-08-26T05:24:57.858Z,10.90
2022-08-26T05:27:24.905Z,10.80
2022-08-26T05:29:56.191Z,10.73
2022-08-26T05:32:23.441Z,10.30
2022-08-26T05:34:55.492Z,10.55
2022-08-26T05:37:22.547Z,11.10
2022-08-26T05:39:51.096Z,10.75
2022-08-26T05:42:19.911Z,10.57
2022-08-26T05:44:55.377Z,11.43
2022-08-26T05:47:24.353Z,11.60
2022-08-26T05:49:51.823Z,11.77
2022-08-26T05:52:19.798Z,10.43
2022-08-26T05:54:47.686Z,10.27
2022-08-26T05:57:15.061Z,10.48
2022-08-26T05:59:42.221Z,10.13
2022-08-26T06:02:10.239Z,11.07
2022-08-26T06:04:37.110Z,11.05
2022-08-26T06:07:04.200Z,11.00
2022-08-26T06:09:37.430Z,10.38
2022-08-26T06:12:05.986Z,10.50
2022-08-26T06:14:32.894Z,11.18
2022-08-26T06:17:00.826Z,11.00
2022-08-26T06:19:33.008Z,9.82
2022-08-26T06:22:23.356Z,10.90
2022-08-26T06:25:09.920Z,10.88
2022-08-26T06:27:38.143Z,10.95
2022-08-26T06:30:06.497Z,10.13
2022-08-26T06:32:33.472Z,10.60
2022-08-26T06:35:00.612Z,10.18
2022-08-26T06:37:28.635Z,10.52
2022-08-26T06:39:56.296Z,10.15
2022-08-26T06:42:24.739Z,10.40
2022-08-26T06:44:51.763Z,9.63
2022-08-26T06:47:18.870Z,10.10
2022-08-26T06:49:45.822Z,9.95
2022-08-26T06:52:13.086Z,9.50
2022-08-26T06:54:44.255Z,9.60
2022-08-26T06:57:11.838Z,10.02
2022-08-26T06:59:38.988Z,10.15
2022-08-26T07:02:06.309Z,10.25
2022-08-26T07:04:35.731Z,10.27
2022-08-26T07:07:02.863Z,9.77
2022-08-26T07:09:33.172Z,8.30
2022-08-26T07:12:00.337Z,8.55
2022-08-26T07:14:27.665Z,8.43
2022-08-26T07:16:55.227Z,8.65
2022-08-26T07:19:31.108Z,7.80
2022-08-26T07:22:04.784Z,8.95
2022-08-26T07:24:35.095Z,7.78
2022-08-26T07:29:33.317Z,7.28
2022-08-26T07:32:00.721Z,7.45
2022-08-26T07:34:28.378Z,7.05
2022-08-26T07:36:56.989Z,6.82
2022-08-26T07:39:25.258Z,7.00
2022-08-26T07:41:54.099Z,6.68
2022-08-26T07:44:21.153Z,7.55
2022-08-26T07:46:53.058Z,6.68
2022-08-26T07:49:23.622Z,7.18
2022-08-26T07:51:51.732Z,7.68
2022-08-26T07:54:19.212Z,10.80
2022-08-26T07:56:48.492Z,7.18
2022-08-26T07:59:17.608Z,7.97
2022-08-26T08:01:46.120Z,7.22
2022-08-26T08:04:17.981Z,7.15
2022-08-26T08:06:45.912Z,7.32
2022-08-26T08:09:16.136Z,7.95
2022-08-26T08:11:45.020Z,7.45
2022-08-26T08:14:12.668Z,8.32
2022-08-26T08:16:46.045Z,8.57
2022-08-26T08:19:15.326Z,8.60
2022-08-26T08:21:43.932Z,9.13
2022-08-26T08:24:11.907Z,8.98
2022-08-26T08:26:39.221Z,8.55
2022-08-26T08:29:08.817Z,9.38
2022-08-26T08:31:56.588Z,7.75
2022-08-26T08:34:25.813Z,7.88
2022-08-26T08:36:53.753Z,8.68
2022-08-26T08:39:22.346Z,8.30
2022-08-26T08:41:55.528Z,12.38
2022-08-26T08:47:06.289Z,12.95
2022-08-26T08:49:34.586Z,13.27
2022-08-26T08:52:08.646Z,15.90
2022-08-26T08:54:35.825Z,19.05
2022-08-26T08:57:22.171Z,14.68
2022-08-26T09:00:09.104Z,16.38
2022-08-26T09:02:50.451Z,12.38
2022-08-26T09:05:34.240Z,18.40
2022-08-26T09:08:12.227Z,14.23
2022-08-26T09:10:49.831Z,15.38
2022-08-26T09:13:24.954Z,21.75
2022-08-26T09:16:09.905Z,22.42
2022-08-26T09:19:01.827Z,18.98
2022-08-26T09:21:32.160Z,16.38
2022-08-26T09:23:59.489Z,18.95
2022-08-26T09:26:38.864Z,19.60
2022-08-26T09:32:13.085Z,24.77
2022-08-26T09:34:55.269Z,23.30
2022-08-26T09:40:23.003Z,21.25
2022-08-26T09:43:08.581Z,22.02
2022-08-26T09:45:36.319Z,20.98
2022-08-26T09:48:06.484Z,15.80
2022-08-26T09:50:39.928Z,12.82
2022-08-26T09:53:14.026Z,14.23
2022-08-26T09:55:44.534Z,13.40
2022-08-26T10:01:05.524Z,7.38
2022-08-26T10:03:43.867Z,10.82
2022-08-26T10:06:17.006Z,11.55
2022-08-26T10:08:49.004Z,11.43
2022-08-26T10:11:35.661Z,13.13
2022-08-26T10:14:21.615Z,12.38
2022-08-26T10:17:50.076Z,13.15
2022-08-26T10:20:26.472Z,9.75
2022-08-26T10:23:02.220Z,11.18
2022-08-26T10:26:07.988Z,11.80
2022-08-26T10:28:49.198Z,9.70
2022-08-26T10:31:47.848Z,11.07
2022-08-26T10:34:19.160Z,12.20
2022-08-26T10:37:14.990Z,11.73
2022-08-26T10:39:58.585Z,10.90
2022-08-26T10:43:04.096Z,11.32
2022-08-26T10:45:50.516Z,11.15
2022-08-26T10:48:24.501Z,9.38
2022-08-26T10:50:52.231Z,11.80
2022-08-26T10:53:51.391Z,14.88
2022-08-26T10:56:38.434Z,13.75
2022-08-26T10:59:45.359Z,9.77
2022-08-26T11:02:24.155Z,11.52
2022-08-26T11:05:01.048Z,14.48
2022-08-26T11:07:51.471Z,9.70
2022-08-26T11:10:18.852Z,15.93
2022-08-26T11:12:49.476Z,16.58
2022-08-26T11:15:28.140Z,14.88
2022-08-26T11:18:00.019Z,13.18
2022-08-26T11:20:33.165Z,14.25
2022-08-26T11:23:18.767Z,13.85
2022-08-26T11:26:11.002Z,13.02
2022-08-26T11:28:38.028Z,11.93
2022-08-26T11:31:10.008Z,16.02
2022-08-26T11:33:49.029Z,17.65
2022-08-26T11:36:42.039Z,17.65
2022-08-26T11:39:29.158Z,18.33
2022-08-26T11:42:01.856Z,19.20
2022-08-26T11:44:41.099Z,16.77
2022-08-26T11:47:25.249Z,20.15
2022-08-26T11:50:07.063Z,17.60
2022-08-26T11:52:34.167Z,14.82
2022-08-26T11:55:03.894Z,16.20
2022-08-26T11:57:34.452Z,14.95
2022-08-26T12:00:04.065Z,20.63
2022-08-26T12:02:33.673Z,12.75
2022-08-26T12:05:01.957Z,15.10
2022-08-26T12:07:32.073Z,20.30
2022-08-26T12:10:04.015Z,20.88
2022-08-26T12:12:38.725Z,19.33
2022-08-26T12:15:19.849Z,21.10
2022-08-26T12:17:54.286Z,20.27
2022-08-26T12:20:46.557Z,19.17
2022-08-26T12:23:37.510Z,19.52
2022-08-26T12:26:07.352Z,13.73
2022-08-26T12:28:42.066Z,9.85
2022-08-26T12:31:09.961Z,8.02
2022-08-26T12:33:37.398Z,5.40
2022-08-26T12:36:06.014Z,3.90
2022-08-26T12:38:36.848Z,4.68
2022-08-26T12:41:04.098Z,4.50
2022-08-26T12:43:41.109Z,5.40
2022-08-26T12:46:24.710Z,9.95
2022-08-26T12:48:51.973Z,11.70
2022-08-26T12:51:25.692Z,11.68
2022-08-26T12:53:53.707Z,31.98
2022-08-26T12:56:38.294Z,38.20
2022-08-26T12:59:19.871Z,75.35
2022-08-26T13:01:48.442Z,141.90
2022-08-26T13:04:34.712Z,149.35
2022-08-26T13:07:22.288Z,92.93
2022-08-26T13:09:54.809Z,53.38
2022-08-26T13:12:25.196Z,44.92
2022-08-26T13:17:19.142Z,54.85
2022-08-26T13:19:46.101Z,42.50
2022-08-26T13:22:23.056Z,52.92
2022-08-26T13:24:55.439Z,62.70
2022-08-26T13:27:26.136Z,38.15
2022-08-26T13:29:54.630Z,52.85
2022-08-26T13:32:25.574Z,45.40
2022-08-26T13:34:56.373Z,64.78
2022-08-26T13:37:34.120Z,57.60
2022-08-26T13:40:07.475Z,54.15
2022-08-26T13:42:34.988Z,57.88
2022-08-26T13:45:03.190Z,51.28
2022-08-26T13:47:30.725Z,45.28
2022-08-26T13:49:58.042Z,49.33
2022-08-26T13:52:30.293Z,67.97
2022-08-26T13:54:59.971Z,63.65
2022-08-26T13:57:28.477Z,71.32
2022-08-26T13:59:57.123Z,77.18
2022-08-26T14:02:24.419Z,68.85
2022-08-26T14:04:51.808Z,65.95
2022-08-26T14:07:18.817Z,76.43
2022-08-26T14:09:45.845Z,76.88
2022-08-26T14:12:12.892Z,101.35
2022-08-26T14:14:40.054Z,223.80
2022-08-26T14:17:07.630Z,307.60
2022-08-26T14:19:34.793Z,435.48
2022-08-26T14:22:02.144Z,588.67
2022-08-26T14:24:29.862Z,582.95
2022-08-26T14:26:56.914Z,476.10
2022-08-26T14:29:24.549Z,558.15
2022-08-26T14:31:51.615Z,479.27
2022-08-26T14:34:18.788Z,311.65
2022-08-26T14:36:45.862Z,219.23
2022-08-26T14:39:14.759Z,130.27
2022-08-26T14:41:54.701Z,91.47
2022-08-26T14:46:52.949Z,25.77
2022-08-26T14:49:22.015Z,20.95
2022-08-26T14:51:49.035Z,25.15
2022-08-26T14:54:17.519Z,33.70
2022-08-26T14:57:01.297Z,43.55
2022-08-26T14:59:35.862Z,33.30
2022-08-26T15:02:04.114Z,36.97
2022-08-26T15:04:31.207Z,36.63
2022-08-26T15:06:59.765Z,43.72
2022-08-26T15:09:28.992Z,35.60
2022-08-26T15:11:56.341Z,40.15
2022-08-26T15:14:24.357Z,42.10
2022-08-26T15:16:55.837Z,37.08
2022-08-26T15:19:26.506Z,57.35
2022-08-26T15:21:53.679Z,45.53
2022-08-26T15:24:22.910Z,50.75
2022-08-26T15:26:51.005Z,41.93
2022-08-26T15:29:22.395Z,45.38
2022-08-26T15:31:51.206Z,43.88
2022-08-26T15:34:18.292Z,57.25
2022-08-26T15:36:46.964Z,38.13
2022-08-26T15:39:17.638Z,48.35
2022-08-26T15:41:45.346Z,44.80
2022-08-26T15:44:14.218Z,49.78
2022-08-26T15:46:42.162Z,57.30
2022-08-26T15:49:12.035Z,48.67
2022-08-26T15:51:48.189Z,60.25
2022-08-26T15:54:17.748Z,58.30
2022-08-26T15:56:45.610Z,45.30
2022-08-26T15:59:16.224Z,51.17
2022-08-26T16:01:43.725Z,48.65
2022-08-26T16:04:11.533Z,50.03
2022-08-26T16:06:40.468Z,47.30
2022-08-26T16:09:08.670Z,47.45
2022-08-26T16:11:36.231Z,44.33
2022-08-26T16:14:04.589Z,45.20
2022-08-26T16:16:32.277Z,55.58
2022-08-26T16:19:03.285Z,48.03
2022-08-26T16:21:34.137Z,45.22
2022-08-26T16:24:01.232Z,68.05
2022-08-26T16:26:32.742Z,44.80
2022-08-26T16:29:02.440Z,43.10
2022-08-26T16:31:29.520Z,50.28
2022-08-26T16:33:56.829Z,42.28
2022-08-26T16:36:23.967Z,60.30
2022-08-26T16:38:56.334Z,42.17
2022-08-26T16:41:25.848Z,53.15
2022-08-26T16:43:53.784Z,39.92
2022-08-26T16:46:23.738Z,41.58
2022-08-26T16:48:56.533Z,34.50
2022-08-26T16:51:26.969Z,36.85
2022-08-26T16:56:33.626Z,28.52
2022-08-26T16:59:04.147Z,33.97
2022-08-26T17:01:31.265Z,32.67
2022-08-26T17:03:58.595Z,35.75
2022-08-26T17:06:25.843Z,26.70
2022-08-26T17:08:53.107Z,30.95
2022-08-26T17:11:20.135Z,45.83
2022-08-26T17:13:47.288Z,36.80
2022-08-26T17:16:14.999Z,30.20
2022-08-26T17:18:42.474Z,35.45
2022-08-26T17:21:11.257Z,34.08
2022-08-26T17:23:39.304Z,33.92
2022-08-26T17:26:06.962Z,27.98
2022-08-26T17:28:34.157Z,37.03
2022-08-26T17:31:01.715Z,29.35
2022-08-26T17:33:29.158Z,30.27
2022-08-26T17:35:56.360Z,23.48
2022-08-26T17:38:23.853Z,26.25
2022-08-26T17:40:51.228Z,26.17
2022-08-26T17:43:18.915Z,26.13
2022-08-26T17:45:45.992Z,23.10
2022-08-26T17:48:13.138Z,23.92
2022-08-26T17:50:41.417Z,23.55
2022-08-26T17:53:12.634Z,23.02
2022-08-26T17:55:46.016Z,19.63
2022-08-26T17:58:14.671Z,22.73
2022-08-26T18:00:50.074Z,23.23
2022-08-26T18:03:19.139Z,21.13
2022-08-26T18:05:51.183Z,24.77
2022-08-26T18:08:18.995Z,25.83
2022-08-26T18:10:46.350Z,22.83
2022-08-26T18:13:15.064Z,19.27
2022-08-26T18:15:46.945Z,23.75
2022-08-26T18:18:15.118Z,22.75
2022-08-26T18:20:44.723Z,23.60
2022-08-26T18:23:12.511Z,19.90
2022-08-26T18:25:41.715Z,20.35
2022-08-26T18:28:09.035Z,23.33
2022-08-26T18:30:36.391Z,26.70
2022-08-26T18:33:03.564Z,20.90
2022-08-26T18:35:30.709Z,25.15
2022-08-26T18:38:01.469Z,21.95
2022-08-26T18:40:41.079Z,23.30
2022-08-26T18:43:08.151Z,22.73
2022-08-26T18:45:35.444Z,26.88
2022-08-26T18:48:03.460Z,24.17
2022-08-26T18:50:30.745Z,20.70
2022-08-26T18:52:57.769Z,24.10
2022-08-26T18:55:25.377Z,21.65
2022-08-26T18:57:52.386Z,20.50
2022-08-26T19:00:19.667Z,19.90
2022-08-26T19:02:51.786Z,16.65
2022-08-26T19:05:19.876Z,17.85
2022-08-26T19:07:50.660Z,20.20
2022-08-26T19:10:17.856Z,22.50
2022-08-26T19:12:44.945Z,20.35
2022-08-26T19:15:12.343Z,19.83
2022-08-26T19:17:41.299Z,17.65
2022-08-26T19:20:09.052Z,17.55
2022-08-26T19:22:36.342Z,19.45
2022-08-26T19:25:04.091Z,16.92
2022-08-26T19:27:32.294Z,16.17
2022-08-26T19:29:59.512Z,15.32
2022-08-26T19:32:26.853Z,19.00
2022-08-26T19:34:54.351Z,15.63
2022-08-26T19:37:58.894Z,16.98
2022-08-26T19:40:27.397Z,16.67
2022-08-26T19:42:54.669Z,18.63
2022-08-26T19:45:25.132Z,35.78
2022-08-26T19:47:53.541Z,23.98
2022-08-26T19:50:22.206Z,16.85
2022-08-26T19:52:49.385Z,17.80
2022-08-26T19:55:17.654Z,21.92
2022-08-26T19:58:04.525Z,16.83
2022-08-26T20:00:32.044Z,21.20
2022-08-26T20:02:59.460Z,17.13
2022-08-26T20:05:26.743Z,18.83
2022-08-26T20:07:56.061Z,28.50
2022-08-26T20:10:24.232Z,25.20
2022-08-26T20:12:51.940Z,19.98
2022-08-26T20:15:21.272Z,17.48
2022-08-26T20:17:49.337Z,15.93
2022-08-26T20:20:35.244Z,17.42
2022-08-26T20:23:04.413Z,16.50
2022-08-26T20:25:32.737Z,15.95
2022-08-26T20:28:00.260Z,16.17
2022-08-26T20:30:27.615Z,19.95
2022-08-26T20:32:55.475Z,17.73
2022-08-26T20:35:23.901Z,16.38
2022-08-26T20:38:29.440Z,15.80
2022-08-26T20:40:56.574Z,17.65
2022-08-26T20:43:23.509Z,17.08
2022-08-26T20:45:50.537Z,17.08
2022-08-26T20:48:17.693Z,14.38
2022-08-26T20:50:46.025Z,13.52
2022-08-26T20:53:13.369Z,10.77
2022-08-26T20:55:40.875Z,12.73
2022-08-26T20:58:08.268Z,13.00
2022-08-26T21:00:37.733Z,12.05
2022-08-26T21:03:04.880Z,10.80
2022-08-26T21:05:31.888Z,9.18
2022-08-26T21:07:58.920Z,10.55
2022-08-26T21:10:26.033Z,11.10
2022-08-26T21:12:53.388Z,13.77
2022-08-26T21:15:20.519Z,10.00
2022-08-26T21:17:47.886Z,9.55
2022-08-26T21:20:15.553Z,9.85
2022-08-26T21:22:42.653Z,8.82
2022-08-26T21:25:10.165Z,10.05
2022-08-26T21:27:38.216Z,12.05
2022-08-26T21:30:06.070Z,11.70
2022-08-26T21:32:33.288Z,9.40
2022-08-26T21:35:00.407Z,9.93
2022-08-26T21:37:29.005Z,11.30
2022-08-26T21:39:57.972Z,13.20
2022-08-26T21:42:26.618Z,12.30
2022-08-26T21:44:54.343Z,10.57
2022-08-26T21:47:23.103Z,12.00
2022-08-26T21:49:50.725Z,11.57
2022-08-26T21:52:18.035Z,9.95
2022-08-26T21:54:49.317Z,13.85
2022-08-26T21:57:17.369Z,11.52
2022-08-26T21:59:44.367Z,11.40
2022-08-26T22:02:11.416Z,12.82
2022-08-26T22:04:38.511Z,12.95
2022-08-26T22:07:05.902Z,12.63
2022-08-26T22:09:34.963Z,14.48
2022-08-26T22:12:02.118Z,14.50
2022-08-26T22:14:30.890Z,13.63
2022-08-26T22:16:59.704Z,15.05
2022-08-26T22:19:28.477Z,14.88
2022-08-26T22:21:56.273Z,17.10
2022-08-26T22:24:25.120Z,14.57
2022-08-26T22:26:52.838Z,13.70
2022-08-26T22:29:21.569Z,13.80
2022-08-26T22:31:48.753Z,14.57
2022-08-26T22:34:17.417Z,16.63
2022-08-26T22:36:47.102Z,18.63
2022-08-26T22:39:16.042Z,21.23
2022-08-26T22:41:44.352Z,19.58
2022-08-26T22:44:12.030Z,20.42
2022-08-26T22:46:39.731Z,22.27
2022-08-26T22:49:10.031Z,23.60
2022-08-26T22:51:37.296Z,18.02
2022-08-26T22:54:05.247Z,17.25
2022-08-26T22:56:32.503Z,16.20
2022-08-26T22:58:59.670Z,14.75
2022-08-26T23:01:27.161Z,15.15
2022-08-26T23:03:54.258Z,14.63
2022-08-26T23:06:21.295Z,14.95
2022-08-26T23:08:49.455Z,13.90
2022-08-26T23:11:17.408Z,12.82
2022-08-26T23:13:44.489Z,13.55
2022-08-26T23:16:13.430Z,15.13
2022-08-26T23:18:41.693Z,14.55
2022-08-26T23:21:10.737Z,14.85
2022-08-26T23:23:38.585Z,15.80
2022-08-26T23:26:07.113Z,14.00
2022-08-26T23:28:37.726Z,16.08
2022-08-26T23:33:50.702Z,14.18
2022-08-26T23:36:18.512Z,14.18
2022-08-26T23:38:52.967Z,15.77
2022-08-26T23:41:22.755Z,16.77
2022-08-26T23:43:51.584Z,17.25
2022-08-26T23:46:19.379Z,19.52
2022-08-26T23:48:46.658Z,18.30
2022-08-26T23:51:32.670Z,16.95
2022-08-26T23:53:59.813Z,17.67
2022-08-26T23:56:27.217Z,20.55
2022-08-26T23:58:55.891Z,18.75
